Time;durP1;ratioP1;P1;durP2;ratioP2;P2;SDS_P1;SDS_P2;PMS_P1;PMS_P2;Temp;Humidity;BMP_temperature;BMP_pressure;BME280_temperature;BME280_humidity;BME280_pressure;Samples;Min_cycle;Max_cycle;Signal;HPM_P1;HPM_P2
2022/04/18 00:02:08;;;;;;;5.93;3.65;;;6.70;93.50;;;;;;4954357;28;20054;-76
2022/04/18 00:04:35;;;;;;;5.30;3.75;;;6.60;93.80;;;;;;4953836;28;20070;-76
2022/04/18 00:07:01;;;;;;;8.32;3.67;;;6.50;94.20;;;;;;4936713;29;20074;-76
2022/04/18 00:09:26;;;;;;;7.07;4.07;;;6.50;94.70;;;;;;4955306;29;20027;-78
2022/04/18 00:11:52;;;;;;;5.88;4.97;;;6.50;94.80;;;;;;4947006;29;20031;-80
2022/04/18 00:14:18;;;;;;;4.35;3.35;;;6.50;95.40;;;;;;4955862;28;20023;-80
2022/04/18 00:16:43;;;;;;;5.60;3.83;;;6.50;95.60;;;;;;4955941;28;20035;-79
2022/04/18 00:19:09;;;;;;;4.65;3.17;;;6.50;95.80;;;;;;4955057;29;20122;-79
2022/04/18 00:21:34;;;;;;;5.30;3.58;;;6.50;96.10;;;;;;4953134;28;20038;-79
2022/04/18 00:24:00;;;;;;;5.95;3.70;;;6.50;96.00;;;;;;4957396;28;20034;-79
2022/04/18 00:26:26;;;;;;;3.83;3.38;;;6.40;96.20;;;;;;4954247;28;20042;-78
2022/04/18 00:28:51;;;;;;;5.43;3.38;;;6.30;96.30;;;;;;4945475;28;20045;-78
2022/04/18 00:31:17;;;;;;;6.40;3.55;;;6.20;96.80;;;;;;4960232;28;20472;-79
2022/04/18 00:33:43;;;;;;;3.50;3.08;;;6.30;96.30;;;;;;4937814;29;20523;-79
2022/04/18 00:36:08;;;;;;;3.55;2.88;;;6.50;95.70;;;;;;4956988;28;20538;-78
2022/04/18 00:38:34;;;;;;;4.20;3.20;;;6.50;95.90;;;;;;4950239;28;20027;-80
2022/04/18 00:41:00;;;;;;;4.63;3.15;;;6.50;95.90;;;;;;4957664;28;20097;-78
2022/04/18 00:43:41;;;;;;;4.90;3.10;;;6.50;95.90;;;;;;4953839;28;20051;-79
2022/04/18 00:46:08;;;;;;;3.92;2.85;;;6.70;95.40;;;;;;4950156;28;20034;-79
2022/04/18 00:48:34;;;;;;;3.13;2.83;;;6.60;95.70;;;;;;4942720;29;20457;-78
2022/04/18 00:51:00;;;;;;;3.40;2.83;;;6.50;96.10;;;;;;4956610;28;20141;-79
2022/04/18 00:53:26;;;;;;;4.63;3.50;;;6.40;96.60;;;;;;4956196;29;20023;-78
2022/04/18 00:55:52;;;;;;;5.35;3.45;;;6.30;97.20;;;;;;4957050;28;20089;-79
2022/04/18 00:58:18;;;;;;;5.07;3.70;;;6.20;97.90;;;;;;4955444;28;20031;-79
2022/04/18 01:00:44;;;;;;;10.77;4.38;;;6.20;98.70;;;;;;4956786;28;20034;-79
2022/04/18 01:03:09;;;;;;;7.13;3.70;;;6.10;99.10;;;;;;4955182;29;20041;-79
2022/04/18 01:05:35;;;;;;;5.13;3.22;;;6.00;99.80;;;;;;4946158;28;20038;-78
2022/04/18 01:08:00;;;;;;;4.28;3.35;;;6.00;99.90;;;;;;4954644;29;20031;-78
2022/04/18 01:10:26;;;;;;;3.85;3.08;;;6.00;99.90;;;;;;4947555;28;20027;-79
2022/04/18 01:12:51;;;;;;;5.15;3.90;;;5.90;99.90;;;;;;4953784;28;20105;-78
2022/04/18 01:15:17;;;;;;;6.10;4.00;;;5.80;99.90;;;;;;4947001;28;20066;-78
2022/04/18 01:17:42;;;;;;;6.75;3.45;;;5.80;99.90;;;;;;4962699;28;20035;-78
2022/04/18 01:20:09;;;;;;;6.25;3.45;;;5.80;99.90;;;;;;4954572;28;20449;-78
2022/04/18 01:22:36;;;;;;;5.45;3.35;;;5.70;99.90;;;;;;4954923;29;20023;-79
2022/04/18 01:30:29;;;;;;;3.30;2.80;;;6.00;99.90;;;;;;4956986;28;20093;-79
2022/04/18 01:32:55;;;;;;;3.97;3.38;;;6.10;99.90;;;;;;4957880;28;20035;-79
2022/04/18 01:35:21;;;;;;;5.00;3.83;;;6.00;99.90;;;;;;4937412;28;20029;-79
2022/04/18 01:37:46;;;;;;;4.72;4.20;;;5.90;99.90;;;;;;4959048;28;20497;-78
2022/04/18 01:40:12;;;;;;;7.43;3.60;;;5.80;99.90;;;;;;4933892;28;20031;-78
2022/04/18 01:42:37;;;;;;;4.03;2.97;;;5.70;99.90;;;;;;4953499;29;20458;-78
2022/04/18 01:45:04;;;;;;;5.95;3.60;;;5.70;99.90;;;;;;4950796;28;20030;-77
2022/04/18 01:47:29;;;;;;;4.75;3.75;;;5.60;99.90;;;;;;4935108;29;20521;-78
2022/04/18 01:49:55;;;;;;;5.45;3.38;;;5.50;99.90;;;;;;4952876;28;20063;-80
2022/04/18 01:52:20;;;;;;;8.15;3.20;;;5.50;99.90;;;;;;4945811;29;20023;-78
2022/04/18 01:54:46;;;;;;;3.85;3.13;;;5.50;99.90;;;;;;4959711;28;20035;-78
2022/04/18 01:57:11;;;;;;;4.47;3.25;;;5.60;99.90;;;;;;4953643;28;20050;-79
2022/04/18 01:59:37;;;;;;;6.70;3.25;;;5.70;99.90;;;;;;4952879;28;20034;-79
2022/04/18 02:02:03;;;;;;;3.42;2.92;;;5.70;99.90;;;;;;4952096;28;20031;-78
2022/04/18 02:04:28;;;;;;;3.35;2.85;;;5.70;99.90;;;;;;4950252;28;20027;-79
2022/04/18 02:06:54;;;;;;;4.03;2.97;;;5.60;99.90;;;;;;4954018;28;20027;-78
2022/04/18 02:09:19;;;;;;;7.05;3.00;;;5.50;99.90;;;;;;4944594;28;20035;-78
2022/04/18 02:11:45;;;;;;;5.00;3.42;;;5.40;99.90;;;;;;4957694;28;20110;-78
2022/04/18 02:14:11;;;;;;;3.50;2.80;;;5.40;99.90;;;;;;4928939;29;20034;-78
2022/04/18 02:16:36;;;;;;;4.50;2.97;;;5.30;99.90;;;;;;4938494;29;20027;-79
2022/04/18 02:19:02;;;;;;;5.00;3.42;;;5.20;99.90;;;;;;4946531;29;20501;-79
2022/04/18 02:21:28;;;;;;;5.25;3.42;;;5.20;99.90;;;;;;4956133;28;20115;-78
2022/04/18 02:23:53;;;;;;;5.53;3.40;;;5.10;99.90;;;;;;4952774;28;20371;-79
2022/04/18 02:26:19;;;;;;;4.55;3.40;;;5.10;99.90;;;;;;4962157;28;20016;-78
2022/04/18 02:28:45;;;;;;;4.90;3.35;;;5.10;99.90;;;;;;4962912;28;20070;-78
2022/04/18 02:31:10;;;;;;;7.95;3.97;;;5.10;99.90;;;;;;4941918;28;20027;-78
2022/04/18 02:33:36;;;;;;;4.38;3.38;;;5.00;99.90;;;;;;4957555;28;20027;-78
2022/04/18 02:36:02;;;;;;;4.93;3.10;;;5.00;99.90;;;;;;4964842;28;20158;-79
2022/04/18 02:38:28;;;;;;;3.65;3.35;;;5.00;99.90;;;;;;4938567;29;20038;-79
2022/04/18 02:40:53;;;;;;;3.75;3.25;;;5.00;99.90;;;;;;4942265;29;20028;-78
2022/04/18 02:43:19;;;;;;;5.32;3.80;;;4.90;99.90;;;;;;4947295;28;20497;-79
2022/04/18 02:45:45;;;;;;;5.32;3.35;;;4.90;99.90;;;;;;4959316;28;20020;-79
2022/04/18 02:48:10;;;;;;;5.25;3.50;;;4.90;99.90;;;;;;4956890;29;20409;-78
2022/04/18 02:50:36;;;;;;;3.50;3.20;;;4.80;99.90;;;;;;4942167;29;20086;-77
2022/04/18 02:53:01;;;;;;;3.63;3.17;;;4.80;99.90;;;;;;4948935;28;20055;-78
2022/04/18 02:55:28;;;;;;;3.92;3.50;;;4.70;99.90;;;;;;4964677;28;20019;-79
2022/04/18 02:57:53;;;;;;;5.70;4.13;;;4.60;99.90;;;;;;4949976;29;20443;-78
2022/04/18 03:00:19;;;;;;;4.82;3.58;;;4.70;99.90;;;;;;4956530;28;20034;-78
2022/04/18 03:02:44;;;;;;;6.65;3.80;;;4.60;99.90;;;;;;4933193;29;20486;-77
2022/04/18 03:05:11;;;;;;;5.75;3.33;;;4.70;99.90;;;;;;4960530;28;20107;-78
2022/04/18 03:07:38;;;;;;;5.20;3.70;;;4.60;99.90;;;;;;4956436;28;20077;-78
2022/04/18 03:10:05;;;;;;;4.57;3.20;;;4.60;99.90;;;;;;4967443;28;20028;-78
2022/04/18 03:12:31;;;;;;;3.78;3.38;;;4.50;99.90;;;;;;4934651;29;20024;-77
2022/04/18 03:14:56;;;;;;;3.90;3.20;;;4.50;99.90;;;;;;4938385;29;20035;-80
2022/04/18 03:17:22;;;;;;;4.03;3.28;;;4.50;99.90;;;;;;4953019;29;20026;-78
2022/04/18 03:19:48;;;;;;;3.95;3.58;;;4.50;99.90;;;;;;4953247;28;20046;-80
2022/04/18 03:22:13;;;;;;;4.88;3.97;;;4.60;99.90;;;;;;4954409;28;20493;-79
2022/04/18 03:24:39;;;;;;;3.58;3.13;;;4.80;99.90;;;;;;4952294;28;20102;-78
2022/04/18 03:27:05;;;;;;;4.40;3.65;;;4.70;99.90;;;;;;4967377;28;20089;-79
2022/04/18 03:29:31;;;;;;;5.05;3.35;;;4.70;99.90;;;;;;4942552;29;20026;-79
2022/04/18 03:31:57;;;;;;;4.97;4.13;;;4.70;99.90;;;;;;4956644;28;20085;-76
2022/04/18 03:34:23;;;;;;;7.75;3.90;;;4.60;99.90;;;;;;4945396;28;20062;-79
2022/04/18 03:39:52;;;;;;;7.47;4.25;;;4.70;99.90;;;;;;4960168;28;20042;-78
2022/04/18 03:42:31;;;;;;;4.47;3.58;;;4.80;99.90;;;;;;4945142;28;20417;-79
2022/04/18 03:45:00;;;;;;;3.92;3.40;;;4.80;99.90;;;;;;4956806;28;20027;-78
2022/04/18 03:47:26;;;;;;;8.65;3.97;;;4.80;99.90;;;;;;4955871;28;20034;-79
2022/04/18 03:49:52;;;;;;;7.47;4.07;;;4.80;99.90;;;;;;4958679;28;20105;-79
2022/04/18 03:52:17;;;;;;;7.75;5.07;;;4.80;99.90;;;;;;4954514;28;20513;-78
2022/04/18 03:54:43;;;;;;;6.95;3.92;;;4.70;99.90;;;;;;4953565;28;20034;-78
2022/04/18 03:57:14;;;;;;;6.45;4.10;;;4.60;99.90;;;;;;4953616;28;20027;-78
2022/04/18 03:59:40;;;;;;;4.70;3.58;;;4.50;99.90;;;;;;4953565;28;20409;-79
2022/04/18 04:02:06;;;;;;;4.97;3.70;;;4.40;99.90;;;;;;4955990;28;20027;-78
2022/04/18 04:04:32;;;;;;;5.28;4.05;;;4.30;99.90;;;;;;4936307;29;20460;-79
2022/04/18 04:06:58;;;;;;;7.78;3.63;;;4.20;99.90;;;;;;4955483;28;20030;-79
2022/04/18 04:09:24;;;;;;;3.92;3.53;;;4.10;99.90;;;;;;4953701;28;20027;-79
2022/04/18 04:11:50;;;;;;;3.72;3.42;;;4.10;99.90;;;;;;4938500;29;20100;-77
2022/04/18 04:14:16;;;;;;;4.45;3.30;;;4.10;99.90;;;;;;4943432;28;20031;-79
2022/04/18 04:16:41;;;;;;;4.90;3.67;;;4.00;99.90;;;;;;4958782;28;20413;-78
2022/04/18 04:19:07;;;;;;;3.72;3.40;;;4.10;99.90;;;;;;4959659;28;20042;-79
2022/04/18 04:21:33;;;;;;;4.03;3.65;;;4.10;99.90;;;;;;4955600;28;20024;-79
2022/04/18 04:24:00;;;;;;;3.90;3.50;;;4.00;99.90;;;;;;4950755;28;20034;-79
2022/04/18 04:26:26;;;;;;;5.72;4.00;;;4.00;99.90;;;;;;4938118;29;20103;-78
2022/04/18 04:28:51;;;;;;;3.83;3.42;;;4.00;99.90;;;;;;4946431;28;20150;-78
2022/04/18 04:31:17;;;;;;;4.18;3.30;;;4.00;99.90;;;;;;4938779;28;20027;-78
2022/04/18 04:33:42;;;;;;;4.40;3.78;;;4.10;99.90;;;;;;4961335;28;20031;-78
2022/04/18 04:36:08;;;;;;;3.80;3.17;;;4.00;99.90;;;;;;4956609;28;20024;-79
2022/04/18 04:38:34;;;;;;;5.65;3.53;;;4.00;99.90;;;;;;4948758;28;20023;-78
2022/04/18 04:40:59;;;;;;;5.00;3.67;;;4.10;99.90;;;;;;4956580;28;20098;-79
2022/04/18 04:43:28;;;;;;;7.50;4.47;;;4.20;99.90;;;;;;4956098;28;20403;-77
2022/04/18 04:45:57;;;;;;;4.00;3.58;;;4.40;99.90;;;;;;4956099;28;20041;-79
2022/04/18 04:48:23;;;;;;;4.85;4.40;;;4.60;99.90;;;;;;4946014;28;20087;-78
2022/04/18 04:50:49;;;;;;;6.63;3.38;;;4.90;99.90;;;;;;4939277;28;20090;-78
2022/04/18 04:53:15;;;;;;;4.30;3.67;;;5.20;99.90;;;;;;4935093;28;20031;-77
2022/04/18 04:55:41;;;;;;;4.97;4.10;;;5.50;99.90;;;;;;4957546;28;20156;-79
2022/04/18 04:58:09;;;;;;;5.05;3.30;;;5.80;99.90;;;;;;4953464;28;20034;-79
2022/04/18 05:00:37;;;;;;;8.15;5.43;;;6.20;99.90;;;;;;4954724;28;20110;-80
2022/04/18 05:03:03;;;;;;;3.72;3.05;;;6.70;99.90;;;;;;4955284;28;20482;-79
2022/04/18 05:05:28;;;;;;;3.35;2.83;;;7.20;99.90;;;;;;4946433;29;20098;-80
2022/04/18 05:07:55;;;;;;;4.55;2.95;;;7.60;99.90;;;;;;4936554;29;20090;-79
2022/04/18 05:10:21;;;;;;;3.75;2.80;;;8.20;99.90;;;;;;4945995;28;20162;-79
2022/04/18 05:12:47;;;;;;;4.50;2.78;;;8.40;99.90;;;;;;4939957;28;20034;-78
2022/04/18 05:15:13;;;;;;;3.97;2.40;;;8.90;99.90;;;;;;4945618;28;20032;-78
2022/04/18 05:17:39;;;;;;;3.92;2.80;;;9.30;99.90;;;;;;4958851;28;20051;-78
2022/04/18 05:20:05;;;;;;;4.97;3.00;;;10.00;98.60;;;;;;4955785;28;20122;-79
2022/04/18 05:22:31;;;;;;;5.32;3.58;;;10.70;97.20;;;;;;4932637;29;20015;-78
2022/04/18 05:24:57;;;;;;;3.90;3.47;;;11.10;96.20;;;;;;4963709;28;20466;-78
2022/04/18 05:27:23;;;;;;;5.03;3.45;;;11.00;96.00;;;;;;4926614;29;20107;-77
2022/04/18 05:29:49;;;;;;;3.63;3.30;;;10.70;95.50;;;;;;4957792;28;20025;-78
2022/04/18 05:32:15;;;;;;;6.05;2.92;;;10.50;96.80;;;;;;4936250;29;20054;-78
2022/04/18 05:34:41;;;;;;;5.20;3.15;;;11.20;95.90;;;;;;4957735;28;20054;-77
2022/04/18 05:37:07;;;;;;;3.92;3.28;;;11.30;94.90;;;;;;4944316;29;20110;-77
2022/04/18 05:39:33;;;;;;;4.32;3.05;;;11.40;95.00;;;;;;4954078;28;20078;-78
2022/04/18 05:41:58;;;;;;;4.07;3.33;;;11.10;95.20;;;;;;4957033;28;20031;-78
2022/04/18 05:44:24;;;;;;;3.58;3.28;;;11.70;94.50;;;;;;4954173;28;20035;-78
2022/04/18 05:46:49;;;;;;;7.32;3.33;;;11.80;94.10;;;;;;4953941;29;20030;-79
2022/04/18 05:49:15;;;;;;;5.07;3.63;;;11.80;93.60;;;;;;4929930;29;20055;-79
2022/04/18 05:51:41;;;;;;;7.55;3.45;;;11.80;93.70;;;;;;4931685;29;20122;-79
2022/04/18 05:54:07;;;;;;;4.68;3.70;;;11.30;93.60;;;;;;4932312;29;20082;-78
2022/04/18 05:56:32;;;;;;;3.92;3.00;;;11.10;94.50;;;;;;4945514;29;20053;-78
2022/04/18 05:58:59;;;;;;;3.80;3.47;;;11.00;93.90;;;;;;4942466;28;20117;-79
2022/04/18 06:01:24;;;;;;;6.03;4.30;;;10.80;94.30;;;;;;4955994;28;20044;-78
2022/04/18 06:03:50;;;;;;;7.03;3.50;;;10.20;94.50;;;;;;4954176;28;20016;-78
2022/04/18 06:06:16;;;;;;;5.53;4.00;;;9.30;95.70;;;;;;4949819;28;20113;-78
2022/04/18 06:08:42;;;;;;;3.97;3.67;;;8.30;97.70;;;;;;4952755;28;20509;-78
2022/04/18 06:11:08;;;;;;;6.53;4.88;;;7.90;99.10;;;;;;4936064;28;20038;-78
2022/04/18 06:13:33;;;;;;;5.05;4.35;;;7.70;99.80;;;;;;4942336;28;20023;-78
2022/04/18 06:15:59;;;;;;;7.40;4.72;;;8.00;99.40;;;;;;4954803;28;20448;-78
2022/04/18 06:18:25;;;;;;;6.25;4.32;;;7.80;99.50;;;;;;4936346;29;20038;-78
2022/04/18 06:20:51;;;;;;;6.40;3.90;;;7.70;99.80;;;;;;4931633;28;20058;-78
2022/04/18 06:23:16;;;;;;;6.45;5.07;;;7.70;99.80;;;;;;4953828;28;20054;-77
2022/04/18 06:25:46;;;;;;;5.45;4.22;;;7.70;99.90;;;;;;4936680;28;20074;-77
2022/04/18 06:28:14;;;;;;;4.05;3.67;;;7.90;99.80;;;;;;4937391;28;20025;-78
2022/04/18 06:30:40;;;;;;;5.55;4.38;;;8.00;99.40;;;;;;4945642;28;20120;-78
2022/04/18 06:33:10;;;;;;;4.10;3.70;;;7.90;99.50;;;;;;4960477;28;20034;-77
2022/04/18 06:35:36;;;;;;;4.13;3.72;;;7.70;99.90;;;;;;4965965;28;20031;-78
2022/04/18 06:38:01;;;;;;;4.88;4.45;;;7.80;99.90;;;;;;4959587;28;20505;-77
2022/04/18 06:40:27;;;;;;;5.32;4.45;;;8.10;99.70;;;;;;4956882;28;20050;-77
2022/04/18 06:42:52;;;;;;;5.75;3.83;;;8.40;99.10;;;;;;4959112;28;20051;-78
2022/04/18 06:45:18;;;;;;;5.10;3.85;;;8.60;98.20;;;;;;4936328;29;20032;-78
2022/04/18 06:47:43;;;;;;;4.47;4.07;;;8.80;98.00;;;;;;4946896;28;20364;-77
2022/04/18 06:50:12;;;;;;;6.53;4.00;;;8.80;97.60;;;;;;4933874;28;20082;-77
2022/04/18 06:52:39;;;;;;;5.25;4.60;;;8.80;97.70;;;;;;4958941;28;20093;-78
2022/04/18 06:55:06;;;;;;;7.88;4.72;;;8.90;97.60;;;;;;4955114;28;20023;-77
2022/04/18 06:57:31;;;;;;;5.28;4.18;;;9.10;97.20;;;;;;4948021;28;20031;-77
2022/04/18 06:59:57;;;;;;;5.05;4.07;;;9.00;97.40;;;;;;4938625;29;20027;-78
2022/04/18 07:02:22;;;;;;;6.80;4.25;;;9.30;96.60;;;;;;4937345;29;20050;-77
2022/04/18 07:04:49;;;;;;;6.35;4.13;;;9.50;96.10;;;;;;4953059;28;20386;-78
2022/04/18 07:07:14;;;;;;;4.60;4.15;;;9.60;95.30;;;;;;4953183;28;20148;-77
2022/04/18 07:09:40;;;;;;;4.25;3.88;;;9.50;94.80;;;;;;4952229;28;20027;-78
2022/04/18 07:12:06;;;;;;;4.35;3.65;;;9.60;94.80;;;;;;4958116;28;20093;-78
2022/04/18 07:14:34;;;;;;;4.60;4.00;;;9.80;94.50;;;;;;4957114;28;20635;-78
2022/04/18 07:16:59;;;;;;;4.20;3.80;;;9.90;94.20;;;;;;4956311;28;20102;-77
2022/04/18 07:19:25;;;;;;;3.75;3.45;;;10.10;94.30;;;;;;4938896;29;20058;-77
2022/04/18 07:21:51;;;;;;;9.68;4.97;;;10.10;93.70;;;;;;4955405;28;20082;-78
2022/04/18 07:24:16;;;;;;;6.45;4.00;;;10.20;93.50;;;;;;4935982;29;20099;-78
2022/04/18 07:26:42;;;;;;;4.10;3.70;;;10.30;93.20;;;;;;4948472;28;20034;-78
2022/04/18 07:29:07;;;;;;;5.20;3.70;;;10.40;92.60;;;;;;4938812;29;20675;-78
2022/04/18 07:31:33;;;;;;;7.68;3.72;;;10.60;92.30;;;;;;4958303;28;20027;-78
2022/04/18 07:33:59;;;;;;;4.90;3.72;;;10.50;91.80;;;;;;4955939;28;20051;-77
2022/04/18 07:36:24;;;;;;;6.15;3.50;;;10.60;92.40;;;;;;4957115;28;20039;-77
2022/04/18 07:38:50;;;;;;;4.70;3.58;;;10.80;91.80;;;;;;4953098;28;20038;-78
2022/04/18 07:41:16;;;;;;;4.70;3.58;;;10.70;91.30;;;;;;4955724;28;20508;-79
2022/04/18 07:43:42;;;;;;;4.78;4.15;;;10.70;91.30;;;;;;4956508;28;20102;-78
2022/04/18 07:46:08;;;;;;;6.10;4.00;;;10.70;91.50;;;;;;4937677;29;20434;-78
2022/04/18 07:48:33;;;;;;;4.57;3.67;;;10.80;91.20;;;;;;4950086;28;20024;-78
2022/04/18 07:53:44;;;;;;;7.15;3.78;;;10.90;90.60;;;;;;4954496;28;20167;-78
2022/04/18 07:56:10;;;;;;;5.38;3.80;;;11.00;90.90;;;;;;4952075;28;20116;-78
2022/04/18 07:58:35;;;;;;;4.35;3.30;;;11.10;90.40;;;;;;4962116;28;20090;-78
2022/04/18 08:01:01;;;;;;;4.03;3.63;;;11.20;90.50;;;;;;4954060;28;20041;-79
2022/04/18 08:03:27;;;;;;;4.53;3.38;;;11.40;90.40;;;;;;4949056;29;20030;-78
2022/04/18 08:05:56;;;;;;;4.57;3.67;;;11.40;89.80;;;;;;4965700;28;20086;-77
2022/04/18 08:08:22;;;;;;;4.13;3.72;;;11.40;89.90;;;;;;4950884;28;20520;-77
2022/04/18 08:10:48;;;;;;;4.00;3.58;;;11.50;89.40;;;;;;4940129;28;20026;-78
2022/04/18 08:13:13;;;;;;;5.70;3.38;;;11.60;89.10;;;;;;4938157;29;20524;-77
2022/04/18 08:15:39;;;;;;;4.38;3.35;;;11.70;89.20;;;;;;4933548;29;20418;-78
2022/04/18 08:18:05;;;;;;;3.47;3.17;;;11.80;89.00;;;;;;4936032;29;20023;-78
2022/04/18 08:20:31;;;;;;;4.30;3.15;;;11.90;87.00;;;;;;4954471;29;20027;-77
2022/04/18 08:22:56;;;;;;;5.57;3.45;;;11.90;86.70;;;;;;4933171;28;20023;-78
2022/04/18 08:25:22;;;;;;;4.68;3.45;;;11.70;87.30;;;;;;4959475;28;20019;-78
2022/04/18 08:27:48;;;;;;;6.72;3.30;;;11.90;88.70;;;;;;4939528;28;20428;-79
2022/04/18 08:30:13;;;;;;;4.85;3.10;;;12.20;88.40;;;;;;4953764;28;20028;-78
2022/04/18 08:32:39;;;;;;;5.00;3.10;;;12.20;86.90;;;;;;4938957;29;20055;-79
2022/04/18 08:35:06;;;;;;;4.97;3.45;;;12.10;88.00;;;;;;4954624;28;20050;-78
2022/04/18 08:37:34;;;;;;;3.30;2.97;;;12.30;87.10;;;;;;4952641;28;20027;-78
2022/04/18 08:40:00;;;;;;;4.05;3.67;;;12.30;86.10;;;;;;4949971;28;20058;-77
2022/04/18 08:42:33;;;;;;;4.43;2.90;;;12.30;86.10;;;;;;4954518;28;20019;-77
2022/04/18 08:45:01;;;;;;;3.58;2.85;;;12.30;86.40;;;;;;4953502;28;20023;-77
2022/04/18 08:52:56;;;;;;;3.35;3.05;;;13.00;83.40;;;;;;4957438;28;20172;-77
2022/04/18 08:55:23;;;;;;;4.85;3.80;;;13.00;83.70;;;;;;4952229;28;20039;-78
2022/04/18 08:57:48;;;;;;;3.55;3.17;;;13.10;83.90;;;;;;4951195;28;20028;-77
2022/04/18 09:00:14;;;;;;;4.32;3.30;;;13.40;81.70;;;;;;4960875;28;20034;-78
2022/04/18 09:02:39;;;;;;;3.38;2.83;;;13.50;81.40;;;;;;4941187;29;20031;-78
2022/04/18 09:05:14;;;;;;;3.42;2.90;;;13.30;81.60;;;;;;4956430;28;20133;-78
2022/04/18 09:07:44;;;;;;;4.82;3.35;;;13.20;81.30;;;;;;4947380;29;20039;-77
2022/04/18 09:10:11;;;;;;;4.15;3.25;;;13.20;81.20;;;;;;4955005;28;20520;-78
2022/04/18 09:12:42;;;;;;;6.60;3.33;;;13.20;80.60;;;;;;4930809;29;20027;-77
2022/04/18 09:15:09;;;;;;;4.35;3.95;;;13.40;81.20;;;;;;4934165;29;20106;-78
2022/04/18 09:17:35;;;;;;;3.50;3.15;;;13.70;80.00;;;;;;4949308;29;20027;-78
2022/04/18 09:20:09;;;;;;;5.35;2.90;;;13.80;80.50;;;;;;4951297;29;20066;-77
2022/04/18 09:22:48;;;;;;;2.72;2.53;;;13.90;79.30;;;;;;4955605;29;20030;-77
2022/04/18 09:25:21;;;;;;;2.67;2.38;;;14.30;77.70;;;;;;4949250;29;20083;-78
2022/04/18 09:27:57;;;;;;;2.35;2.15;;;14.30;75.00;;;;;;4934428;29;20136;-79
2022/04/18 09:30:24;;;;;;;3.70;2.38;;;14.40;74.70;;;;;;4957679;29;20024;-78
2022/04/18 09:33:00;;;;;;;4.25;2.67;;;14.60;76.10;;;;;;4954542;29;20030;-78
2022/04/18 09:35:26;;;;;;;2.95;2.63;;;14.50;72.80;;;;;;4940887;29;20129;-78
2022/04/18 09:37:53;;;;;;;3.95;2.50;;;14.50;72.40;;;;;;4950006;28;20100;-78
2022/04/18 09:40:23;;;;;;;3.67;2.60;;;14.60;72.00;;;;;;4954104;29;20035;-78
2022/04/18 09:42:53;;;;;;;4.70;2.50;;;14.60;71.70;;;;;;4944935;29;20034;-78
2022/04/18 09:45:19;;;;;;;5.75;2.95;;;14.50;71.10;;;;;;4955550;29;20022;-78
2022/04/18 09:48:01;;;;;;;3.72;3.00;;;14.60;72.60;;;;;;4933147;29;20028;-78
2022/04/18 09:53:22;;;;;;;3.90;2.60;;;14.80;71.50;;;;;;4948340;29;20042;-76
2022/04/18 09:55:50;;;;;;;2.70;2.50;;;14.90;71.30;;;;;;4952763;29;20023;-77
2022/04/18 09:58:16;;;;;;;2.95;2.42;;;14.80;70.70;;;;;;4942638;29;20034;-77
2022/04/18 10:00:42;;;;;;;3.17;2.60;;;14.80;70.30;;;;;;4947609;29;20027;-76
2022/04/18 10:03:08;;;;;;;4.55;2.72;;;14.80;69.80;;;;;;4943522;29;20031;-77
2022/04/18 10:05:35;;;;;;;4.47;3.10;;;14.80;69.70;;;;;;4924585;29;20024;-77
2022/04/18 10:08:03;;;;;;;4.18;2.75;;;15.10;69.70;;;;;;4951363;28;20058;-77
2022/04/18 10:10:41;;;;;;;3.08;2.78;;;15.10;69.60;;;;;;4924619;29;20692;-76
2022/04/18 10:13:08;;;;;;;3.53;2.72;;;15.20;70.30;;;;;;4949986;29;20106;-78
2022/04/18 10:15:38;;;;;;;3.63;2.92;;;15.30;69.70;;;;;;4941338;29;20502;-75
2022/04/18 10:18:05;;;;;;;3.30;2.17;;;15.30;68.50;;;;;;4950548;29;20041;-75
2022/04/18 10:20:34;;;;;;;3.15;2.75;;;15.30;68.80;;;;;;4941683;29;20221;-77
2022/04/18 10:23:21;;;;;;;5.78;3.25;;;15.50;69.20;;;;;;4952100;29;20560;-75
2022/04/18 10:26:12;;;;;;;3.25;2.90;;;15.60;68.60;;;;;;4946798;29;20024;-77
2022/04/18 10:28:43;;;;;;;3.63;3.05;;;15.60;67.90;;;;;;4924772;29;20028;-75
2022/04/18 10:31:13;;;;;;;2.83;2.53;;;15.70;67.90;;;;;;4950685;29;20110;-76
2022/04/18 10:33:40;;;;;;;3.38;2.85;;;15.60;67.10;;;;;;4944029;29;20103;-77
2022/04/18 10:36:10;;;;;;;6.15;2.58;;;15.50;67.30;;;;;;4953524;28;20042;-76
2022/04/18 10:38:37;;;;;;;2.70;2.40;;;15.40;67.30;;;;;;4946852;29;20066;-77
2022/04/18 10:41:16;;;;;;;5.32;3.08;;;15.60;67.00;;;;;;4928113;29;20558;-76
2022/04/18 10:43:54;;;;;;;4.35;2.67;;;15.70;66.70;;;;;;4959323;28;20027;-77
2022/04/18 10:46:20;;;;;;;3.10;2.53;;;15.80;66.70;;;;;;4948347;28;20020;-76
2022/04/18 10:48:56;;;;;;;5.00;2.92;;;15.90;66.70;;;;;;4950427;29;20498;-76
2022/04/18 10:51:36;;;;;;;4.40;2.35;;;15.90;66.40;;;;;;4966995;28;20057;-77
2022/04/18 10:54:10;;;;;;;3.00;2.47;;;16.00;66.70;;;;;;4950299;29;20106;-77
2022/04/18 10:56:47;;;;;;;4.05;2.45;;;16.00;66.50;;;;;;4932092;29;20031;-74
2022/04/18 10:59:14;;;;;;;3.22;2.70;;;16.10;65.50;;;;;;4950484;29;20026;-76
2022/04/18 11:01:40;;;;;;;2.80;2.50;;;16.30;65.00;;;;;;4950698;29;20433;-78
2022/04/18 11:04:12;;;;;;;2.50;2.30;;;16.20;64.70;;;;;;4939510;29;20066;-75
2022/04/18 11:06:38;;;;;;;3.75;2.67;;;16.30;64.20;;;;;;4946902;29;20100;-78
2022/04/18 11:09:16;;;;;;;3.42;2.65;;;16.10;64.60;;;;;;4954980;29;20027;-76
2022/04/18 11:11:48;;;;;;;4.00;2.70;;;16.10;64.40;;;;;;4952776;29;20086;-75
2022/04/18 11:14:14;;;;;;;3.03;2.65;;;15.90;64.10;;;;;;4949715;29;20106;-76
2022/04/18 11:16:43;;;;;;;2.33;2.13;;;15.80;64.30;;;;;;4950591;29;20027;-77
2022/04/18 11:19:10;;;;;;;3.10;2.50;;;15.90;64.30;;;;;;4955514;29;20034;-78
2022/04/18 11:21:57;;;;;;;2.30;1.80;;;16.20;63.80;;;;;;4953655;29;20031;-77
2022/04/18 11:24:39;;;;;;;3.25;2.55;;;16.30;65.00;;;;;;4951217;29;20011;-78
2022/04/18 11:27:15;;;;;;;3.13;2.70;;;16.40;64.10;;;;;;4931490;29;20035;-76
2022/04/18 11:29:46;;;;;;;3.50;2.38;;;16.60;64.40;;;;;;4933248;29;20019;-77
2022/04/18 11:32:16;;;;;;;3.50;2.30;;;16.70;62.80;;;;;;4947977;29;20097;-75
2022/04/18 11:34:47;;;;;;;2.60;2.10;;;16.60;62.80;;;;;;4959270;28;20105;-76
2022/04/18 11:37:33;;;;;;;3.15;2.63;;;16.70;63.80;;;;;;4955695;28;20506;-76
2022/04/18 11:40:04;;;;;;;2.55;2.05;;;16.80;62.60;;;;;;4932395;29;20043;-75
2022/04/18 11:42:31;;;;;;;;;;;16.70;62.70;;;;;;4952402;29;20027;-75
2022/04/18 11:44:58;;;;;;;4.47;2.85;;;16.80;63.40;;;;;;4955615;29;19907;-75
2022/04/18 11:47:27;;;;;;;3.45;2.70;;;16.80;62.50;;;;;;4948601;29;20031;-75
2022/04/18 11:49:55;;;;;;;2.97;2.55;;;16.70;63.50;;;;;;4930857;29;20035;-76
2022/04/18 11:52:27;;;;;;;2.50;2.30;;;16.90;62.60;;;;;;4931172;29;20378;-76
2022/04/18 11:55:05;;;;;;;3.38;2.60;;;16.90;61.80;;;;;;4937906;29;20404;-76
2022/04/18 11:57:36;;;;;;;3.58;2.67;;;17.00;62.20;;;;;;4950667;28;20097;-76
2022/04/18 12:00:05;;;;;;;4.18;2.85;;;16.90;61.40;;;;;;4946560;29;20031;-76
2022/04/18 12:08:02;;;;;;;2.20;1.92;;;16.60;62.30;;;;;;4952412;29;20520;-77
2022/04/18 12:10:31;;;;;;;3.38;2.55;;;17.00;61.50;;;;;;4949946;29;20031;-77
2022/04/18 12:12:58;;;;;;;2.83;2.35;;;16.60;61.40;;;;;;4955308;29;20023;-76
2022/04/18 12:15:26;;;;;;;3.88;2.10;;;17.00;61.50;;;;;;4949451;29;20149;-77
2022/04/18 12:17:53;;;;;;;3.97;1.98;;;17.10;60.00;;;;;;4946731;29;20028;-76
2022/04/18 12:20:29;;;;;;;3.72;2.25;;;17.10;60.80;;;;;;4955852;29;20015;-78
2022/04/18 12:23:01;;;;;;;3.53;2.42;;;17.30;60.00;;;;;;4944827;29;20026;-76
2022/04/18 12:25:30;;;;;;;2.63;2.10;;;17.10;60.90;;;;;;4934399;29;20019;-75
2022/04/18 12:28:03;;;;;;;3.05;2.70;;;17.10;60.50;;;;;;4931973;29;20373;-76
2022/04/18 12:30:28;;;;;;;3.47;2.78;;;17.20;60.10;;;;;;4949561;28;20147;-76
2022/04/18 12:32:54;;;;;;;2.67;2.25;;;16.90;59.90;;;;;;4960173;28;20493;-76
2022/04/18 12:35:37;;;;;;;2.65;2.28;;;17.00;60.20;;;;;;4929423;28;20074;-76
2022/04/18 12:38:09;;;;;;;3.08;2.78;;;17.30;59.80;;;;;;4951403;29;20019;-76
2022/04/18 12:40:40;;;;;;;4.65;2.67;;;17.40;59.20;;;;;;4950044;29;20039;-76
2022/04/18 12:43:11;;;;;;;2.97;2.00;;;17.10;59.80;;;;;;4946610;28;20027;-75
2022/04/18 12:45:45;;;;;;;2.78;2.10;;;17.30;59.40;;;;;;4931433;29;20110;-76
2022/04/18 12:48:12;;;;;;;2.75;2.33;;;17.30;59.10;;;;;;4951260;29;20459;-77
2022/04/18 12:50:39;;;;;;;2.25;1.88;;;17.50;58.70;;;;;;4947370;29;20031;-76
2022/04/18 12:53:05;;;;;;;2.63;2.08;;;17.50;58.60;;;;;;4948637;29;20032;-76
2022/04/18 12:55:31;;;;;;;2.20;2.00;;;17.40;58.80;;;;;;4950515;29;20038;-77
2022/04/18 12:57:58;;;;;;;2.40;2.17;;;17.40;58.90;;;;;;4928563;29;20449;-76
2022/04/18 13:00:24;;;;;;;4.07;2.03;;;17.10;59.20;;;;;;4929326;29;20056;-76
2022/04/18 13:03:17;;;;;;;1.98;1.77;;;17.10;59.30;;;;;;4937294;29;20394;-76
2022/04/18 13:05:45;;;;;;;2.17;1.60;;;17.70;59.10;;;;;;4941959;29;20039;-75
2022/04/18 13:08:12;;;;;;;2.38;1.95;;;17.80;58.60;;;;;;4951142;29;20109;-76
2022/04/18 13:10:38;;;;;;;2.35;2.00;;;17.70;59.20;;;;;;4947682;28;20366;-76
2022/04/18 13:13:10;;;;;;;2.58;2.15;;;17.50;59.20;;;;;;4945028;29;20027;-76
2022/04/18 13:15:38;;;;;;;2.53;1.80;;;17.70;58.90;;;;;;4948262;29;20035;-77
2022/04/18 13:18:08;;;;;;;1.98;1.77;;;17.80;58.40;;;;;;4928463;29;20035;-77
2022/04/18 13:20:35;;;;;;;2.42;1.95;;;17.60;58.50;;;;;;4953669;29;20031;-75